Terminal Aerodrome Forecast
Issued by NWS Wilmington, OH

Current Version | Previous Version | Graphics & Text | Print | Product List | Glossary On
Versions: 1 2 3 4 5 6 7 8 9 10 11 12 13 14 15 16 17 18 19 20
000
FTUS41 KILN 160700 AAA
TAFDAY
TAF AMD
KDAY 160721Z 1607/1706 01005KT 4SM BR OVC015
     FM161500 01006KT P6SM OVC014
     FM161800 36005KT P6SM BKN022
     FM162000 01004KT P6SM SCT035
     FM170000 VRB02KT P6SM SKC=

USA.gov is the U.S. government's official web portal to all federal, state and local government web resources and services.